Time;durP1;ratioP1;P1;durP2;ratioP2;P2;SDS_P1;SDS_P2;PMS_P1;PMS_P2;Temp;Humidity;BMP_temperature;BMP_pressure;BME280_temperature;BME280_humidity;BME280_pressure;Samples;Min_cycle;Max_cycle;Signal;HPM_P1;HPM_P2
2023/08/14 00:01:49;;;;;;;8.53;3.60;;;;;;;18.96;100.00;100096.66;5005999;28;20221;-68
2023/08/14 00:04:14;;;;;;;5.83;3.30;;;;;;;18.93;100.00;100102.13;5028918;28;20642;-68
2023/08/14 00:06:40;;;;;;;4.03;3.27;;;;;;;18.95;100.00;100108.03;5031374;28;20252;-67
2023/08/14 00:09:05;;;;;;;5.33;3.00;;;;;;;18.86;100.00;100114.84;5022516;28;20642;-67
2023/08/14 00:11:30;;;;;;;4.07;3.47;;;;;;;18.81;100.00;100117.88;5018282;28;20233;-67
2023/08/14 00:13:56;;;;;;;3.47;3.17;;;;;;;18.89;100.00;100117.19;5015579;28;20716;-67
2023/08/14 00:16:23;;;;;;;6.47;3.40;;;;;;;18.88;100.00;100112.94;5011384;28;20189;-67
2023/08/14 00:18:48;;;;;;;5.33;3.17;;;;;;;18.94;100.00;100120.25;5011788;28;20240;-68
2023/08/14 00:21:13;;;;;;;4.67;3.00;;;;;;;19.05;100.00;100115.84;5018158;28;20213;-68
2023/08/14 00:23:39;;;;;;;4.17;3.27;;;;;;;19.11;100.00;100118.72;5028644;28;20205;-66
2023/08/14 00:26:04;;;;;;;6.10;3.03;;;;;;;19.18;100.00;100129.41;5030614;28;20553;-68
2023/08/14 00:28:30;;;;;;;4.33;3.23;;;;;;;19.28;100.00;100121.59;5030212;28;20189;-67
2023/08/14 00:30:56;;;;;;;6.87;3.13;;;;;;;19.34;100.00;100116.63;5020743;28;20236;-67
2023/08/14 00:33:21;;;;;;;6.23;3.50;;;;;;;19.34;100.00;100108.81;5020142;28;20190;-67
2023/08/14 00:35:46;;;;;;;4.23;2.80;;;;;;;19.32;100.00;100113.31;5009468;28;20217;-67
2023/08/14 00:38:12;;;;;;;5.17;3.10;;;;;;;19.35;100.00;100104.44;5011644;28;20660;-67
2023/08/14 00:40:39;;;;;;;5.87;3.00;;;;;;;19.32;100.00;100115.13;5005509;28;20209;-67
2023/08/14 00:43:04;;;;;;;5.03;2.80;;;;;;;19.28;100.00;100096.31;5023649;28;20254;-67
2023/08/14 00:45:29;;;;;;;3.50;2.90;;;;;;;19.24;100.00;100100.19;5026857;28;20201;-67
2023/08/14 00:47:54;;;;;;;6.27;2.90;;;;;;;19.19;100.00;100100.59;5031064;28;20216;-67
2023/08/14 00:50:20;;;;;;;8.27;3.13;;;;;;;19.21;100.00;100097.84;5018827;28;20182;-67
2023/08/14 00:52:48;;;;;;;3.60;3.23;;;;;;;19.13;100.00;100092.53;4996489;28;20298;-67
2023/08/14 00:55:18;;;;;;;4.27;2.80;;;;;;;19.13;100.00;100095.13;5010718;28;20198;-67
2023/08/14 00:57:44;;;;;;;6.17;3.03;;;;;;;19.01;100.00;100091.84;5011010;28;20677;-67
2023/08/14 01:00:11;;;;;;;5.13;2.40;;;;;;;18.93;100.00;100092.53;5002259;28;20179;-67
2023/08/14 01:02:37;;;;;;;4.63;3.23;;;;;;;18.98;100.00;100092.13;5028283;28;20269;-67
2023/08/14 01:05:02;;;;;;;3.20;2.73;;;;;;;19.03;100.00;100087.31;5014290;28;20233;-67
2023/08/14 01:07:29;;;;;;;6.70;3.30;;;;;;;19.05;100.00;100087.97;5007642;28;20549;-67
2023/08/14 01:09:55;;;;;;;6.00;3.13;;;;;;;19.12;100.00;100089.06;5012266;28;20241;-67
2023/08/14 01:12:29;;;;;;;6.80;3.00;;;;;;;19.01;100.00;100084.00;5022902;28;20704;-67
2023/08/14 01:15:01;;;;;;;9.63;2.90;;;;;;;18.97;100.00;100086.06;5033955;28;20576;-67
2023/08/14 01:17:31;;;;;;;5.07;2.90;;;;;;;19.01;100.00;100073.59;5034920;28;20181;-67
2023/08/14 01:19:57;;;;;;;4.30;2.87;;;;;;;19.03;100.00;100066.47;5033971;28;20243;-67
2023/08/14 01:22:35;;;;;;;3.97;3.00;;;;;;;18.98;100.00;100072.09;5039671;28;20227;-67
2023/08/14 01:25:18;;;;;;;4.17;2.80;;;;;;;18.90;100.00;100081.53;5033696;28;20217;-67
2023/08/14 01:27:43;;;;;;;6.87;3.73;;;;;;;18.86;100.00;100065.34;5034305;28;20193;-67
2023/08/14 01:30:09;;;;;;;4.83;3.00;;;;;;;18.82;100.00;100077.00;5024979;28;20634;-67
2023/08/14 01:32:34;;;;;;;5.03;3.10;;;;;;;18.80;100.00;100071.09;5048274;28;20187;-67
2023/08/14 01:35:00;;;;;;;5.07;3.20;;;;;;;18.80;100.00;100073.72;5033444;28;20784;-67
2023/08/14 01:37:32;;;;;;;5.37;3.60;;;;;;;18.74;100.00;100076.88;5034119;28;20178;-67
2023/08/14 01:40:20;;;;;;;5.23;3.17;;;;;;;18.59;100.00;100066.03;5034001;28;20186;-67
2023/08/14 01:42:50;;;;;;;5.73;3.37;;;;;;;18.66;100.00;100067.13;5022736;28;20222;-66
2023/08/14 01:45:19;;;;;;;7.47;3.30;;;;;;;18.66;100.00;100070.56;5033332;28;20197;-67
2023/08/14 01:47:46;;;;;;;6.13;3.17;;;;;;;18.66;100.00;100069.75;5032729;28;20695;-66
2023/08/14 01:50:14;;;;;;;4.50;3.47;;;;;;;18.62;100.00;100065.75;5024809;28;20186;-68
2023/08/14 01:52:39;;;;;;;5.33;3.00;;;;;;;18.60;100.00;100071.09;5047597;28;20328;-66
2023/08/14 01:55:05;;;;;;;6.50;2.90;;;;;;;18.65;100.00;100070.69;5033162;28;20300;-66
2023/08/14 01:57:31;;;;;;;5.77;3.60;;;;;;;18.65;100.00;100073.31;5033677;28;20537;-66
2023/08/14 01:59:57;;;;;;;3.80;3.20;;;;;;;18.70;100.00;100069.34;5033551;28;20585;-67
2023/08/14 02:02:22;;;;;;;6.23;3.63;;;;;;;18.75;100.00;100068.91;5019869;28;20242;-66
2023/08/14 02:04:47;;;;;;;3.83;3.43;;;;;;;18.80;100.00;100058.06;5013510;28;20175;-67
2023/08/14 02:07:12;;;;;;;4.37;3.20;;;;;;;18.81;100.00;100049.31;5013597;28;20535;-66
2023/08/14 02:09:38;;;;;;;4.43;3.20;;;;;;;18.75;100.00;100053.28;5013686;28;20182;-67
2023/08/14 02:12:04;;;;;;;5.87;3.80;;;;;;;18.69;100.00;100052.06;5005529;28;20221;-67
2023/08/14 02:14:30;;;;;;;3.80;3.10;;;;;;;18.62;100.00;100056.16;5022897;28;20253;-67
2023/08/14 02:16:55;;;;;;;6.03;3.10;;;;;;;18.54;100.00;100053.41;5033311;28;20645;-67
2023/08/14 02:19:20;;;;;;;3.70;3.37;;;;;;;18.34;100.00;100058.59;5032166;28;20222;-66
2023/08/14 02:21:46;;;;;;;6.50;3.50;;;;;;;18.35;100.00;100047.22;5021892;28;20240;-66
2023/08/14 02:24:11;;;;;;;6.50;3.70;;;;;;;18.35;100.00;100039.41;5014862;28;20269;-67
2023/08/14 02:26:36;;;;;;;7.10;3.53;;;;;;;18.38;100.00;100048.75;5012193;28;20198;-66
2023/08/14 02:29:03;;;;;;;3.73;3.23;;;;;;;18.38;100.00;100048.75;5013074;28;20174;-67
2023/08/14 02:31:28;;;;;;;5.13;3.47;;;;;;;18.39;100.00;100045.19;5009641;28;20218;-66
2023/08/14 02:34:00;;;;;;;4.57;3.03;;;;;;;18.43;100.00;100048.34;5031333;28;20192;-66
2023/08/14 02:36:26;;;;;;;6.63;3.30;;;;;;;18.54;100.00;100037.78;5032918;28;20186;-67
2023/08/14 02:38:52;;;;;;;6.87;3.50;;;;;;;18.62;100.00;100037.94;5020211;28;20185;-66
2023/08/14 02:41:18;;;;;;;6.70;3.50;;;;;;;18.63;100.00;100028.31;5022204;28;20320;-66
2023/08/14 02:43:43;;;;;;;3.43;3.00;;;;;;;18.70;100.00;100025.03;5018405;28;20262;-67
2023/08/14 02:46:08;;;;;;;4.07;3.07;;;;;;;18.77;100.00;100016.69;5012693;28;20198;-68
2023/08/14 02:48:33;;;;;;;4.47;2.70;;;;;;;18.85;100.00;100019.38;5000598;28;20661;-67
2023/08/14 02:50:59;;;;;;;8.00;3.20;;;;;;;18.92;100.00;100011.88;5017904;28;20221;-67
2023/08/14 02:53:24;;;;;;;6.27;3.03;;;;;;;18.95;100.00;100009.81;5040745;28;20197;-67
2023/08/14 02:55:53;;;;;;;7.33;3.30;;;;;;;18.98;100.00;100009.53;5031792;28;20198;-68
2023/08/14 02:58:18;;;;;;;5.30;3.17;;;;;;;19.00;100.00;100006.78;5032536;28;20547;-67
2023/08/14 03:00:47;;;;;;;4.67;2.80;;;;;;;18.96;100.00;100010.63;5023948;28;20217;-67
2023/08/14 03:03:13;;;;;;;5.43;3.00;;;;;;;18.93;100.00;100009.13;5028341;28;20178;-67
2023/08/14 03:05:39;;;;;;;6.27;2.83;;;;;;;19.00;100.00;100011.97;5031694;28;20178;-66
2023/08/14 03:08:05;;;;;;;4.20;2.97;;;;;;;18.88;100.00;100001.69;5032410;28;20174;-66
2023/08/14 03:10:30;;;;;;;5.50;2.90;;;;;;;18.91;100.00;99994.59;5025763;28;20220;-66
2023/08/14 03:12:56;;;;;;;4.93;3.03;;;;;;;18.91;100.00;99992.81;5043831;28;20200;-67
2023/08/14 03:15:22;;;;;;;3.83;2.70;;;;;;;18.76;100.00;100002.81;5031707;28;20276;-67
2023/08/14 03:17:48;;;;;;;4.23;3.03;;;;;;;18.79;100.00;100004.31;5032329;28;20182;-67
2023/08/14 03:20:13;;;;;;;4.13;3.30;;;;;;;18.74;100.00;100004.72;5021806;28;20182;-67
2023/08/14 03:22:38;;;;;;;3.90;2.93;;;;;;;18.69;100.00;100014.75;5026080;28;20179;-67
2023/08/14 03:25:04;;;;;;;3.90;2.90;;;;;;;18.70;100.00;100011.19;5011361;28;20198;-68
2023/08/14 03:27:29;;;;;;;4.80;2.73;;;;;;;18.80;100.00;99996.34;5012276;28;20190;-67
2023/08/14 03:29:55;;;;;;;5.87;3.27;;;;;;;18.84;100.00;100002.09;5012022;28;20549;-66
2023/08/14 03:32:20;;;;;;;6.10;2.83;;;;;;;18.84;100.00;99999.50;4997905;28;20226;-66
2023/08/14 03:34:45;;;;;;;5.50;2.90;;;;;;;18.82;100.00;100002.25;5011761;28;20194;-67
2023/08/14 03:37:11;;;;;;;5.80;3.33;;;;;;;18.86;100.00;100001.00;5012319;28;20183;-67
2023/08/14 03:39:36;;;;;;;3.87;2.57;;;;;;;18.92;100.00;100010.09;5012287;28;20194;-67
2023/08/14 03:42:01;;;;;;;4.73;2.90;;;;;;;19.00;100.00;100004.16;5017278;28;20570;-67
2023/08/14 03:44:26;;;;;;;4.63;3.10;;;;;;;19.03;100.00;99993.47;5011834;28;20649;-67
2023/08/14 03:46:52;;;;;;;4.77;3.73;;;;;;;19.03;100.00;99993.47;5012333;28;20178;-67
2023/08/14 03:49:17;;;;;;;4.70;2.97;;;;;;;19.02;100.00;99990.03;5012001;28;20179;-66
2023/08/14 03:51:42;;;;;;;3.23;2.93;;;;;;;19.10;100.00;99986.72;5014306;28;20579;-67
2023/08/14 03:54:08;;;;;;;3.60;2.60;;;;;;;19.11;100.00;99988.34;5013776;28;20289;-67
2023/08/14 03:56:33;;;;;;;3.93;2.67;;;;;;;19.08;100.00;99988.66;5012005;28;20179;-67
2023/08/14 03:58:58;;;;;;;4.27;3.40;;;;;;;18.90;100.00;99988.50;5011634;28;20183;-66
2023/08/14 04:01:23;;;;;;;6.03;3.40;;;;;;;18.73;100.00;99984.88;5003830;28;20260;-67
2023/08/14 04:03:49;;;;;;;6.20;2.97;;;;;;;18.81;100.00;99981.56;5016261;28;20186;-67
2023/08/14 04:06:14;;;;;;;3.90;2.80;;;;;;;18.83;100.00;99984.84;5010248;28;20190;-68
2023/08/14 04:08:39;;;;;;;6.33;3.00;;;;;;;18.88;100.00;99980.84;5011643;28;20190;-68
2023/08/14 04:11:04;;;;;;;3.70;3.10;;;;;;;18.94;100.00;99983.88;5009823;28;20298;-68
2023/08/14 04:13:30;;;;;;;5.77;3.80;;;;;;;18.97;100.00;99986.22;5018606;28;20196;-67
2023/08/14 04:16:03;;;;;;;5.53;3.07;;;;;;;18.93;100.00;99988.28;5011093;28;20207;-67
2023/08/14 04:18:29;;;;;;;4.90;3.07;;;;;;;18.94;100.00;99989.09;5011501;28;20198;-67
2023/08/14 04:20:55;;;;;;;5.30;3.00;;;;;;;18.96;100.00;99997.59;5008574;28;20253;-67
2023/08/14 04:23:22;;;;;;;6.00;3.13;;;;;;;18.98;100.00;99998.28;5019911;28;20183;-64
2023/08/14 04:25:48;;;;;;;5.50;3.03;;;;;;;18.89;100.00;99999.94;5009232;28;20182;-65
2023/08/14 04:28:13;;;;;;;5.47;3.00;;;;;;;18.76;100.00;99995.00;5011384;28;20537;-66
2023/08/14 04:30:38;;;;;;;3.57;2.80;;;;;;;18.81;100.00;99998.00;5006038;28;20245;-66
2023/08/14 04:33:04;;;;;;;4.47;2.30;;;;;;;18.83;100.00;100000.50;5021841;28;20236;-66
2023/08/14 04:35:29;;;;;;;3.73;2.43;;;;;;;18.98;100.00;99999.09;5011073;28;20229;-66
2023/08/14 04:37:54;;;;;;;5.60;2.60;;;;;;;19.10;100.00;99993.72;5014829;28;20506;-67
2023/08/14 04:40:20;;;;;;;4.80;2.70;;;;;;;19.12;100.00;99990.00;5007442;28;20540;-66
2023/08/14 04:42:45;;;;;;;4.33;2.67;;;;;;;19.03;100.00;99985.66;5028327;28;20216;-65
2023/08/14 04:45:10;;;;;;;4.63;2.87;;;;;;;18.99;100.00;99984.28;5015305;28;20190;-66
2023/08/14 04:47:36;;;;;;;4.63;2.37;;;;;;;19.09;100.00;99986.84;5015180;28;20171;-65
2023/08/14 04:50:01;;;;;;;4.37;2.30;;;;;;;19.18;100.00;99986.03;5014239;28;20265;-65
2023/08/14 04:52:26;;;;;;;4.40;2.93;;;;;;;19.30;100.00;99989.25;5005328;28;20297;-65
2023/08/14 04:54:51;;;;;;;4.30;2.30;;;;;;;19.40;100.00;99984.00;5014551;28;20610;-65
2023/08/14 04:57:17;;;;;;;4.70;2.53;;;;;;;19.29;100.00;99988.44;5014794;28;20218;-64
2023/08/14 04:59:42;;;;;;;8.87;3.07;;;;;;;19.35;100.00;99985.25;5015012;28;20179;-64
2023/08/14 05:02:07;;;;;;;6.60;2.30;;;;;;;19.51;100.00;99994.25;5006274;28;20643;-65
2023/08/14 05:04:33;;;;;;;4.67;2.80;;;;;;;19.68;100.00;99995.25;5014707;28;20250;-65
2023/08/14 05:06:58;;;;;;;3.87;2.47;;;;;;;19.81;100.00;99998.34;5014699;28;20619;-65
2023/08/14 05:09:23;;;;;;;2.63;2.10;;;;;;;19.76;100.00;99997.97;5030157;28;20186;-66
2023/08/14 05:11:48;;;;;;;3.33;2.60;;;;;;;19.70;100.00;99995.94;5017597;28;20697;-65
2023/08/14 05:14:14;;;;;;;4.17;2.50;;;;;;;19.76;100.00;99994.53;5016177;28;20292;-65
2023/08/14 05:16:39;;;;;;;4.07;2.73;;;;;;;19.82;100.00;99991.34;5013652;28;20182;-65
2023/08/14 05:19:05;;;;;;;3.93;2.67;;;;;;;19.95;100.00;99994.44;5014870;28;20205;-65
2023/08/14 05:21:30;;;;;;;5.00;2.60;;;;;;;20.08;100.00;100004.56;5015550;28;20256;-64
2023/08/14 05:23:55;;;;;;;7.73;2.50;;;;;;;20.10;100.00;100005.22;5018726;28;20488;-66
2023/08/14 05:26:20;;;;;;;5.50;2.57;;;;;;;20.22;100.00;100002.38;5013718;28;20174;-65
2023/08/14 05:28:46;;;;;;;7.67;2.43;;;;;;;20.41;100.00;100004.03;5014757;28;20175;-64
2023/08/14 05:31:11;;;;;;;4.57;2.70;;;;;;;20.35;100.00;100010.66;5012852;28;20225;-64
2023/08/14 05:33:36;;;;;;;4.27;2.47;;;;;;;20.56;100.00;100005.13;5013378;28;20556;-65
2023/08/14 05:36:02;;;;;;;6.67;2.87;;;;;;;20.62;100.00;100004.53;5013669;28;20289;-65
2023/08/14 05:38:27;;;;;;;7.33;2.97;;;;;;;20.82;100.00;100008.78;5014294;28;20183;-65
2023/08/14 05:40:52;;;;;;;5.97;2.77;;;;;;;20.85;100.00;100006.69;5009915;28;20699;-65
2023/08/14 05:43:17;;;;;;;6.77;3.00;;;;;;;21.03;100.00;100005.81;5023565;28;20171;-65
2023/08/14 05:45:45;;;;;;;6.47;2.33;;;;;;;20.84;100.00;100002.44;5013563;28;20191;-65
2023/08/14 05:48:12;;;;;;;4.27;2.40;;;;;;;20.75;100.00;100014.63;5012428;28;20190;-65
2023/08/14 05:50:38;;;;;;;6.93;2.80;;;;;;;20.75;100.00;100011.19;5003545;28;20246;-65
2023/08/14 05:53:04;;;;;;;8.23;2.90;;;;;;;20.66;100.00;100015.50;5012501;28;20650;-65
2023/08/14 05:55:32;;;;;;;6.00;2.53;;;;;;;20.66;100.00;100005.03;5011839;28;20195;-66
2023/08/14 05:57:57;;;;;;;4.77;2.87;;;;;;;20.64;100.00;100010.44;5029138;28;20764;-66
2023/08/14 06:00:24;;;;;;;7.27;2.77;;;;;;;20.54;100.00;100004.47;5006058;28;20407;-65
2023/08/14 06:02:50;;;;;;;5.63;3.13;;;;;;;20.74;100.00;99989.47;5026439;28;20249;-65
2023/08/14 06:05:16;;;;;;;4.97;3.13;;;;;;;20.82;100.00;99987.88;5013240;28;20210;-64
2023/08/14 06:07:41;;;;;;;9.03;3.67;;;;;;;21.05;100.00;100001.25;5013600;28;20305;-65
2023/08/14 06:10:08;;;;;;;8.83;3.30;;;;;;;21.40;100.00;100009.94;5003869;28;20194;-66
2023/08/14 06:12:34;;;;;;;4.70;3.13;;;;;;;21.57;100.00;100003.84;5012220;28;20224;-65
2023/08/14 06:14:59;;;;;;;5.80;3.73;;;;;;;21.51;100.00;100001.81;5011033;28;20299;-63
2023/08/14 06:17:25;;;;;;;6.57;3.40;;;;;;;21.21;100.00;100006.59;5013398;28;20721;-64
2023/08/14 06:19:50;;;;;;;4.07;3.00;;;;;;;21.33;100.00;100009.72;5011839;28;20186;-66
2023/08/14 06:22:20;;;;;;;5.00;2.77;;;;;;;21.47;100.00;100007.50;5018856;28;20228;-66
2023/08/14 06:24:45;;;;;;;7.17;3.23;;;;;;;21.64;100.00;100005.81;5009095;28;20309;-64
2023/08/14 06:27:11;;;;;;;6.03;3.10;;;;;;;21.85;100.00;100005.41;5013549;28;20190;-67
2023/08/14 06:29:36;;;;;;;8.93;3.17;;;;;;;22.01;100.00;99997.56;5011624;28;20333;-65
2023/08/14 06:32:01;;;;;;;8.83;3.10;;;;;;;22.17;100.00;100003.81;5004089;28;20253;-65
2023/08/14 06:34:27;;;;;;;6.50;3.17;;;;;;;22.40;100.00;99986.50;5012558;28;20198;-66
2023/08/14 06:36:53;;;;;;;6.73;2.80;;;;;;;22.64;100.00;99960.47;5011607;28;20194;-65
2023/08/14 06:39:18;;;;;;;4.83;3.40;;;;;;;22.63;100.00;99971.94;5012854;28;20179;-65
2023/08/14 06:41:44;;;;;;;6.60;3.00;;;;;;;23.11;100.00;99967.56;5013526;28;20300;-63
2023/08/14 06:44:10;;;;;;;5.37;3.13;;;;;;;23.36;100.00;99968.31;5014642;28;20627;-64
2023/08/14 06:46:35;;;;;;;8.83;3.30;;;;;;;23.92;100.00;99977.09;5011700;28;20207;-65
2023/08/14 06:49:00;;;;;;;5.73;2.90;;;;;;;24.45;100.00;99983.25;5012565;28;20280;-66
2023/08/14 06:51:26;;;;;;;8.20;3.30;;;;;;;25.00;100.00;99979.66;5012546;28;20308;-65
2023/08/14 06:53:51;;;;;;;7.55;3.03;;;;;;;25.72;100.00;99978.94;5017086;28;20202;-66
2023/08/14 06:56:16;;;;;;;7.63;2.60;;;;;;;26.56;100.00;99971.41;5012433;28;20182;-65
2023/08/14 06:58:42;;;;;;;6.78;2.95;;;;;;;26.36;100.00;99968.63;5011410;28;20641;-66
2023/08/14 07:01:07;;;;;;;6.82;3.08;;;;;;;26.35;100.00;99981.00;5011155;28;20234;-66
2023/08/14 07:03:33;;;;;;;4.68;2.80;;;;;;;27.04;100.00;99990.03;5019571;28;20189;-64
2023/08/14 07:05:58;;;;;;;5.38;3.10;;;;;;;28.93;96.60;99978.78;5010630;28;20303;-66
2023/08/14 07:08:24;;;;;;;5.65;3.22;;;;;;;29.89;84.90;99976.34;5012412;28;20300;-65
2023/08/14 07:10:49;;;;;;;9.85;2.83;;;;;;;30.79;78.86;99976.22;5004335;28;20261;-66
2023/08/14 07:13:15;;;;;;;13.18;3.42;;;;;;;31.00;73.96;99975.81;5011002;28;20265;-66
2023/08/14 07:15:40;;;;;;;4.65;2.55;;;;;;;31.21;70.43;99976.44;5010115;28;20261;-65
2023/08/14 07:18:06;;;;;;;8.02;3.00;;;;;;;31.02;72.23;99968.44;5012400;28;20190;-64
2023/08/14 07:20:31;;;;;;;5.22;2.92;;;;;;;32.21;66.06;99958.25;5005583;28;20229;-66
2023/08/14 07:22:57;;;;;;;3.67;2.50;;;;;;;32.66;59.26;99964.81;5023944;28;20241;-66
2023/08/14 07:25:22;;;;;;;4.78;2.50;;;;;;;31.90;63.04;99964.66;4987297;28;20249;-66
2023/08/14 07:27:48;;;;;;;3.95;2.50;;;;;;;30.98;72.70;99956.63;5012019;28;20189;-65
2023/08/14 07:30:14;;;;;;;4.28;2.40;;;;;;;31.03;71.14;99956.75;4981629;28;20236;-64
2023/08/14 07:32:39;;;;;;;6.70;2.63;;;;;;;31.63;65.97;99944.59;5026076;28;20179;-64
2023/08/14 07:35:05;;;;;;;5.72;2.20;;;;;;;31.00;70.73;99948.44;5011458;28;20205;-65
2023/08/14 07:37:30;;;;;;;4.20;2.60;;;;;;;31.33;66.35;99947.25;5011810;28;20179;-64
2023/08/14 07:39:55;;;;;;;4.20;2.70;;;;;;;29.93;75.26;99953.72;5011823;28;20555;-65
2023/08/14 07:42:21;;;;;;;5.25;2.40;;;;;;;29.50;82.32;99942.91;5017679;28;20551;-65
2023/08/14 07:44:46;;;;;;;8.00;2.72;;;;;;;27.73;92.99;99949.69;5011439;28;20182;-65
2023/08/14 07:47:12;;;;;;;3.85;2.47;;;;;;;27.38;96.48;99950.56;5011851;28;20211;-66
2023/08/14 07:49:37;;;;;;;3.13;2.83;;;;;;;26.72;100.00;99957.13;5010071;28;20332;-67
2023/08/14 07:52:03;;;;;;;4.10;2.10;;;;;;;27.26;96.63;99957.41;5017056;28;20316;-64
2023/08/14 07:54:28;;;;;;;4.25;2.25;;;;;;;28.41;89.59;99972.53;5011664;28;20619;-65
2023/08/14 07:56:54;;;;;;;3.88;2.58;;;;;;;28.54;90.05;99975.16;5010158;28;20191;-63
2023/08/14 07:59:19;;;;;;;5.47;2.33;;;;;;;28.87;85.64;99968.22;5011939;28;20240;-64
2023/08/14 08:01:45;;;;;;;6.07;2.42;;;;;;;29.12;86.00;99965.69;5013887;28;20297;-64
2023/08/14 08:04:10;;;;;;;5.80;2.30;;;;;;;28.10;91.36;99980.03;5012994;28;20945;-67
2023/08/14 08:06:36;;;;;;;6.63;2.42;;;;;;;27.81;94.33;99970.59;5010384;28;20635;-61
2023/08/14 08:09:02;;;;;;;8.13;2.83;;;;;;;28.83;89.52;99973.13;5011601;28;20273;-62
2023/08/14 08:11:27;;;;;;;8.15;2.58;;;;;;;29.34;87.87;99978.69;5012179;28;20229;-62
2023/08/14 08:13:53;;;;;;;8.13;2.85;;;;;;;29.43;86.76;99988.81;5015272;28;20249;-61
2023/08/14 08:16:18;;;;;;;6.57;2.67;;;;;;;28.22;92.32;99996.13;5010746;28;20658;-61
2023/08/14 08:18:43;;;;;;;8.65;2.90;;;;;;;27.39;98.74;99995.25;5011383;28;20190;-63
2023/08/14 08:21:08;;;;;;;9.93;3.58;;;;;;;26.91;100.00;99987.28;5009279;28;20221;-61
2023/08/14 08:23:34;;;;;;;9.45;3.47;;;;;;;26.37;100.00;99971.06;5018692;28;20692;-62
2023/08/14 08:25:59;;;;;;;11.60;2.78;;;;;;;26.22;100.00;99989.59;5011206;28;20193;-62
2023/08/14 08:28:24;;;;;;;7.38;2.92;;;;;;;26.45;100.00;99985.13;5011451;28;20269;-62
2023/08/14 08:30:49;;;;;;;4.63;2.70;;;;;;;26.41;100.00;99990.78;5007274;28;20226;-63
2023/08/14 08:33:15;;;;;;;15.48;2.60;;;;;;;26.66;100.00;99997.47;5020388;28;20179;-61
2023/08/14 08:35:40;;;;;;;13.27;2.65;;;;;;;27.90;100.00;99987.91;5010440;28;20646;-61
2023/08/14 08:38:06;;;;;;;4.55;2.33;;;;;;;28.37;98.80;100000.38;5011272;28;20190;-61
2023/08/14 08:40:32;;;;;;;5.07;2.55;;;;;;;29.22;94.61;100002.31;5005160;28;20299;-60
2023/08/14 08:43:00;;;;;;;6.35;2.90;;;;;;;28.73;94.93;100012.41;5022637;28;20341;-62
2023/08/14 08:45:32;;;;;;;11.07;2.92;;;;;;;28.49;95.74;100004.06;5010132;28;20197;-62
2023/08/14 08:48:01;;;;;;;4.25;2.80;;;;;;;29.60;93.36;100002.41;5010885;28;20655;-63
2023/08/14 08:50:28;;;;;;;5.57;2.60;;;;;;;30.30;86.36;99997.28;5003425;28;20700;-62
2023/08/14 08:52:54;;;;;;;7.70;2.42;;;;;;;29.56;92.00;100001.19;5022744;28;20246;-63
2023/08/14 08:55:20;;;;;;;4.28;2.13;;;;;;;30.95;81.23;100017.34;5010629;28;20221;-62
2023/08/14 08:57:48;;;;;;;4.20;2.53;;;;;;;31.26;79.97;100013.75;5010847;28;20198;-63
2023/08/14 09:00:14;;;;;;;5.25;2.83;;;;;;;30.03;86.28;100024.00;5002456;28;20306;-62
2023/08/14 09:02:39;;;;;;;3.55;2.35;;;;;;;30.61;84.86;100015.00;5023949;28;20183;-63
2023/08/14 09:05:05;;;;;;;7.35;2.53;;;;;;;30.49;87.01;100022.06;5010454;28;20721;-62
2023/08/14 09:07:30;;;;;;;5.65;2.70;;;;;;;30.79;83.48;100022.19;5010965;28;20186;-62
2023/08/14 09:09:56;;;;;;;4.78;2.22;;;;;;;30.71;82.59;100017.16;5011083;28;20686;-65
2023/08/14 09:12:22;;;;;;;4.63;2.83;;;;;;;31.02;79.70;100026.88;5000435;28;20222;-63
2023/08/14 09:15:02;;;;;;;4.55;2.30;;;;;;;30.68;84.34;100029.03;5010325;28;20238;-62
2023/08/14 09:17:27;;;;;;;4.82;2.55;;;;;;;31.60;83.35;100011.47;5010805;28;20186;-61
2023/08/14 09:19:52;;;;;;;5.97;2.85;;;;;;;30.25;88.13;100019.97;5010863;28;20179;-62
2023/08/14 09:22:17;;;;;;;3.80;2.50;;;;;;;30.38;88.79;100013.75;5017512;28;20213;-62
2023/08/14 09:24:43;;;;;;;4.47;2.95;;;;;;;31.00;85.61;100015.66;5014217;28;20643;-61
2023/08/14 09:27:08;;;;;;;4.93;2.30;;;;;;;30.09;88.64;100015.19;5013953;28;20182;-61
2023/08/14 09:29:33;;;;;;;8.45;2.83;;;;;;;29.54;95.04;100015.69;5014137;28;20179;-62
2023/08/14 09:32:00;;;;;;;4.85;3.08;;;;;;;29.78;94.91;100006.16;5018775;28;20319;-62
2023/08/14 09:34:25;;;;;;;4.25;2.55;;;;;;;29.69;94.30;100000.31;5014065;28;20721;-61
2023/08/14 09:36:50;;;;;;;6.30;3.00;;;;;;;30.08;90.06;100003.78;5014096;28;20282;-62
2023/08/14 09:39:16;;;;;;;10.52;2.92;;;;;;;30.64;89.32;100003.13;5014181;28;20236;-62
2023/08/14 09:41:46;;;;;;;6.50;2.75;;;;;;;30.15;88.40;100006.38;5016446;28;20586;-61
2023/08/14 09:44:11;;;;;;;3.85;2.63;;;;;;;30.69;87.72;100006.78;5015538;28;20211;-62
2023/08/14 09:46:37;;;;;;;3.95;2.53;;;;;;;30.00;88.48;100001.38;5013810;28;20206;-62
2023/08/14 09:49:02;;;;;;;5.50;2.75;;;;;;;30.62;86.14;100002.56;5013954;28;20623;-62
2023/08/14 09:51:27;;;;;;;6.28;2.65;;;;;;;30.74;84.25;100004.25;5005762;28;20360;-61
2023/08/14 09:53:57;;;;;;;2.30;2.10;;;;;;;30.90;86.28;100005.53;5017760;28;20191;-61
2023/08/14 09:56:24;;;;;;;2.80;2.38;;;;;;;29.81;89.83;100002.28;5013478;28;20261;-60
2023/08/14 09:58:50;;;;;;;4.35;2.60;;;;;;;30.09;90.56;99997.44;5013865;28;20217;-62
2023/08/14 10:01:18;;;;;;;4.45;3.08;;;;;;;29.24;96.22;100002.94;5012594;28;20250;-61
2023/08/14 10:03:46;;;;;;;4.38;2.85;;;;;;;29.21;98.29;99993.59;5018856;28;20669;-61
2023/08/14 10:06:13;;;;;;;5.88;2.80;;;;;;;28.88;100.00;99991.03;5012834;28;20257;-61
2023/08/14 10:08:42;;;;;;;6.47;2.53;;;;;;;29.59;97.50;100006.06;5011722;28;20178;-61
2023/08/14 10:11:11;;;;;;;8.02;3.20;;;;;;;29.81;94.61;100004.94;5011780;28;20234;-62
2023/08/14 10:13:50;;;;;;;5.40;2.80;;;;;;;29.27;97.96;100007.81;5019402;28;20245;-61
2023/08/14 10:16:27;;;;;;;5.07;2.47;;;;;;;29.41;98.81;100008.59;5007329;28;20218;-61
2023/08/14 10:18:54;;;;;;;7.50;3.00;;;;;;;29.22;96.97;100004.97;5011961;28;20541;-61
2023/08/14 10:21:20;;;;;;;3.75;2.97;;;;;;;28.60;100.00;99999.97;5013320;28;20614;-61
2023/08/14 10:23:46;;;;;;;4.05;2.47;;;;;;;28.41;100.00;99997.16;5018531;28;20233;-61
2023/08/14 10:26:12;;;;;;;4.15;2.90;;;;;;;28.46;100.00;99996.53;5012714;28;20194;-62
2023/08/14 10:28:38;;;;;;;4.88;2.70;;;;;;;29.07;100.00;99989.34;5013196;28;20182;-61
2023/08/14 10:31:03;;;;;;;4.40;3.08;;;;;;;29.62;100.00;99989.75;5010828;28;20230;-61
2023/08/14 10:33:30;;;;;;;5.80;2.60;;;;;;;30.03;98.08;99989.53;5020448;28;20657;-61
2023/08/14 10:35:57;;;;;;;6.53;2.70;;;;;;;29.35;100.00;99988.25;5011386;28;20207;-61
2023/08/14 10:38:40;;;;;;;6.78;2.50;;;;;;;29.24;100.00;100002.94;5013147;28;20209;-61
2023/08/14 10:41:07;;;;;;;6.45;3.08;;;;;;;29.07;100.00;100011.31;5010836;28;20237;-61
2023/08/14 10:43:32;;;;;;;4.53;2.78;;;;;;;29.77;98.31;100017.78;5019926;28;20630;-63
2023/08/14 10:45:57;;;;;;;3.25;2.83;;;;;;;30.14;97.18;100019.84;5012291;28;20221;-63
2023/08/14 10:48:24;;;;;;;5.13;2.75;;;;;;;30.01;98.53;100015.47;5012860;28;20194;-64
2023/08/14 10:50:57;;;;;;;3.33;2.40;;;;;;;30.04;94.53;100015.84;5008731;28;20256;-63
2023/08/14 10:53:22;;;;;;;3.03;2.33;;;;;;;30.53;92.35;100026.72;5019864;28;20238;-64
2023/08/14 10:55:48;;;;;;;3.35;2.70;;;;;;;30.80;89.90;100033.63;5012064;28;20272;-62
2023/08/14 10:58:28;;;;;;;4.47;2.97;;;;;;;30.75;90.67;100029.00;5012842;28;20186;-63
2023/08/14 11:00:54;;;;;;;3.90;2.67;;;;;;;31.13;89.29;100027.19;5007916;28;20288;-67
2023/08/14 11:03:19;;;;;;;5.68;2.90;;;;;;;30.94;91.92;100039.63;5012049;28;20178;-71
2023/08/14 11:05:44;;;;;;;7.72;2.72;;;;;;;30.97;89.23;100047.16;5013692;28;20699;-72
2023/08/14 11:08:12;;;;;;;5.30;2.55;;;;;;;30.68;90.67;100050.28;5013060;28;20325;-72
2023/08/14 11:10:38;;;;;;;4.03;2.40;;;;;;;30.75;91.43;100051.03;5007218;28;20268;-72
2023/08/14 11:13:09;;;;;;;3.95;2.58;;;;;;;30.85;93.75;100053.19;5011644;28;20179;-74
2023/08/14 11:15:35;;;;;;;5.00;3.20;;;;;;;31.17;88.08;100061.06;5010182;28;20237;-74
2023/08/14 11:18:02;;;;;;;3.35;2.50;;;;;;;30.62;95.25;100058.31;5012644;28;20190;-72